Time;durP1;ratioP1;P1;durP2;ratioP2;P2;SDS_P1;SDS_P2;PMS_P1;PMS_P2;Temp;Humidity;BMP_temperature;BMP_pressure;BME280_temperature;BME280_humidity;BME280_pressure;Samples;Min_cycle;Max_cycle;Signal;HPM_P1;HPM_P2
2021/08/01 00:02:06;;;;;;;10.68;6.43;;;;;;;19.26;53.99;99207.56;5093030;28;20046;-52
2021/08/01 00:04:32;;;;;;;12.68;6.20;;;;;;;19.25;54.28;99203.16;5093112;28;20120;-54
2021/08/01 00:06:57;;;;;;;12.30;5.95;;;;;;;19.23;54.61;99207.94;5092804;28;20028;-53
2021/08/01 00:09:23;;;;;;;10.98;6.32;;;;;;;19.19;53.99;99206.66;5092494;28;20032;-53
2021/08/01 00:11:48;;;;;;;11.15;7.38;;;;;;;19.15;54.38;99208.91;5093035;28;20032;-49
2021/08/01 00:14:14;;;;;;;8.75;5.97;;;;;;;19.11;54.30;99214.97;5093019;28;20275;-48
2021/08/01 00:16:39;;;;;;;13.02;6.43;;;;;;;19.09;54.45;99212.44;5092498;28;20048;-49
2021/08/01 00:19:05;;;;;;;10.05;6.13;;;;;;;19.06;54.64;99216.38;5092618;28;20036;-50
2021/08/01 00:21:31;;;;;;;10.38;6.65;;;;;;;19.02;54.41;99211.53;5092746;28;20032;-48
2021/08/01 00:23:56;;;;;;;11.13;6.45;;;;;;;19.04;54.77;99220.31;5092344;28;20028;-49
2021/08/01 00:26:22;;;;;;;11.32;6.25;;;;;;;19.01;54.94;99221.53;5091521;28;20082;-48
2021/08/01 00:28:47;;;;;;;12.55;6.85;;;;;;;19.00;54.79;99222.56;5092213;28;20024;-52
2021/08/01 00:31:13;;;;;;;11.45;6.35;;;;;;;18.97;54.90;99225.63;5092562;28;20451;-48
2021/08/01 00:33:38;;;;;;;11.48;6.55;;;;;;;18.97;54.82;99222.09;5092289;28;20477;-48
2021/08/01 00:36:04;;;;;;;13.65;6.53;;;;;;;18.94;55.14;99223.31;5073798;28;20039;-47
2021/08/01 00:38:29;;;;;;;11.65;6.93;;;;;;;18.92;54.97;99219.97;5092504;28;20024;-50
2021/08/01 00:40:55;;;;;;;14.63;7.25;;;;;;;18.92;55.14;99228.09;5091763;28;20382;-47
2021/08/01 00:43:20;;;;;;;18.90;7.30;;;;;;;18.90;55.23;99227.44;5091963;28;20478;-47
2021/08/01 00:45:46;;;;;;;10.07;6.97;;;;;;;18.87;55.20;99231.38;5092173;28;20026;-52
2021/08/01 00:48:13;;;;;;;12.20;6.70;;;;;;;18.86;54.94;99237.00;5091896;28;20028;-50
2021/08/01 00:50:41;;;;;;;11.35;6.15;;;;;;;18.85;55.23;99238.88;5092091;28;20042;-53
2021/08/01 00:53:07;;;;;;;13.65;7.03;;;;;;;18.84;55.80;99244.50;5073737;28;20024;-48
2021/08/01 00:55:33;;;;;;;12.82;6.90;;;;;;;18.82;55.82;99243.84;5091835;28;20034;-51
2021/08/01 00:57:59;;;;;;;9.70;6.15;;;;;;;18.82;55.74;99236.53;5091765;28;20361;-52
2021/08/01 01:02:53;;;;;;;14.63;6.97;;;;;;;18.79;55.50;99239.66;5091945;28;20424;-52
2021/08/01 01:05:30;;;;;;;12.65;6.53;;;;;;;18.86;55.31;99239.72;5091758;28;20098;-49
2021/08/01 01:08:33;;;;;;;12.57;6.10;;;;;;;18.87;54.86;99247.66;5092210;28;20024;-48
2021/08/01 01:11:01;;;;;;;10.43;6.05;;;;;;;18.78;55.68;99246.94;5090770;28;20094;-54
2021/08/01 01:13:34;;;;;;;9.25;6.50;;;;;;;18.76;55.54;99249.00;5091821;28;20039;-51
2021/08/01 01:16:01;;;;;;;11.10;6.60;;;;;;;18.73;56.10;99252.09;5091281;28;20024;-49
2021/08/01 01:18:43;;;;;;;11.82;6.53;;;;;;;18.80;55.73;99246.75;5091721;28;20056;-51
2021/08/01 01:21:14;;;;;;;10.25;7.18;;;;;;;18.78;56.03;99255.06;5091611;28;20071;-49
2021/08/01 01:23:47;;;;;;;12.05;6.50;;;;;;;18.78;55.87;99256.94;5091167;28;20454;-54
2021/08/01 01:26:24;;;;;;;10.13;6.30;;;;;;;18.74;56.41;99252.94;5091647;28;20395;-51
2021/08/01 01:28:59;;;;;;;18.42;7.18;;;;;;;18.80;56.36;99255.72;5091599;28;20061;-54
2021/08/01 01:31:36;;;;;;;11.52;6.68;;;;;;;18.69;57.01;99247.22;5091186;28;20119;-50
2021/08/01 01:34:12;;;;;;;11.45;6.53;;;;;;;18.78;56.38;99260.47;5091228;28;20032;-49
2021/08/01 01:36:42;;;;;;;11.23;6.72;;;;;;;18.75;56.66;99257.34;5091071;28;20115;-51
2021/08/01 01:39:09;;;;;;;11.38;6.30;;;;;;;18.72;56.98;99260.44;5091469;28;20554;-50
2021/08/01 01:41:36;;;;;;;13.50;8.90;;;;;;;18.72;56.93;99263.97;5091324;28;20038;-46
2021/08/01 01:44:05;;;;;;;15.10;9.57;;;;;;;18.76;56.67;99265.25;5090918;28;20024;-49
2021/08/01 01:46:31;;;;;;;14.18;11.07;;;;;;;18.75;57.23;99260.88;5091122;28;20494;-51
2021/08/01 01:48:58;;;;;;;12.93;9.20;;;;;;;18.77;56.90;99266.94;5091628;28;20190;-48
2021/08/01 01:51:23;;;;;;;14.77;9.57;;;;;;;18.79;56.73;99269.47;5091053;28;20035;-48
2021/08/01 01:53:50;;;;;;;10.75;8.13;;;;;;;18.68;56.85;99246.41;5091103;28;20079;-51
2021/08/01 01:56:17;;;;;;;11.55;7.85;;;;;;;18.80;57.16;99268.44;5091307;28;20456;-49
2021/08/01 01:58:43;;;;;;;11.60;7.57;;;;;;;18.84;56.98;99269.72;5091001;28;20035;-48
2021/08/01 02:01:10;;;;;;;17.17;6.88;;;;;;;18.84;57.48;99272.44;5091196;28;20031;-49
2021/08/01 02:03:35;;;;;;;10.35;7.28;;;;;;;18.87;57.28;99268.53;5090819;28;20032;-48
2021/08/01 02:06:01;;;;;;;13.70;6.95;;;;;;;18.89;57.06;99266.47;5091188;28;20374;-49
2021/08/01 02:08:39;;;;;;;12.30;7.20;;;;;;;19.04;56.56;99275.41;5091326;28;20131;-50
2021/08/01 02:11:07;;;;;;;17.80;6.85;;;;;;;18.97;56.97;99269.03;5090990;28;20028;-52
2021/08/01 02:13:43;;;;;;;10.13;7.50;;;;;;;19.09;56.61;99274.81;5091093;28;20412;-48
2021/08/01 02:16:09;;;;;;;11.77;7.50;;;;;;;19.07;56.79;99268.75;5091090;28;20423;-49
2021/08/01 02:18:54;;;;;;;13.88;7.55;;;;;;;19.12;55.88;99250.00;5090656;28;20159;-49
2021/08/01 02:21:20;;;;;;;9.80;6.95;;;;;;;19.15;56.24;99273.22;5091359;28;20036;-47
2021/08/01 02:23:47;;;;;;;10.55;6.90;;;;;;;19.22;56.83;99268.69;5090615;28;20075;-48
2021/08/01 02:26:16;;;;;;;15.20;6.95;;;;;;;19.29;56.08;99266.91;5090933;28;20546;-52
2021/08/01 02:28:42;;;;;;;16.52;7.00;;;;;;;19.30;56.30;99256.88;5090898;28;20025;-48
2021/08/01 02:31:10;;;;;;;20.13;7.22;;;;;;;19.48;55.32;99267.25;5090664;28;20111;-55
2021/08/01 02:33:36;;;;;;;12.25;7.13;;;;;;;19.60;54.72;99273.84;5090837;28;20028;-50
2021/08/01 02:36:05;;;;;;;11.82;7.57;;;;;;;19.75;54.47;99275.59;5090714;28;20120;-50
2021/08/01 02:38:30;;;;;;;16.30;6.97;;;;;;;19.88;54.73;99286.56;5090841;28;20050;-50
2021/08/01 02:41:01;;;;;;;12.50;7.20;;;;;;;19.68;53.86;99220.41;5090679;28;20023;-51
2021/08/01 02:43:29;;;;;;;13.80;6.97;;;;;;;20.14;52.92;99279.66;5090521;28;20115;-51
2021/08/01 02:45:55;;;;;;;10.88;7.28;;;;;;;20.29;53.02;99281.44;5090619;28;20050;-51
2021/08/01 02:48:25;;;;;;;12.15;7.10;;;;;;;20.43;52.44;99283.16;5091403;28;20456;-49
2021/08/01 02:51:03;;;;;;;13.60;6.90;;;;;;;20.62;52.28;99287.03;5094544;28;20028;-54
2021/08/01 02:53:34;;;;;;;9.88;6.38;;;;;;;20.66;52.70;99282.00;5094369;28;20027;-48
2021/08/01 02:56:03;;;;;;;14.63;7.28;;;;;;;20.78;51.63;99291.25;5094255;28;20425;-50
2021/08/01 02:58:32;;;;;;;13.45;6.75;;;;;;;20.86;51.50;99292.16;5094286;28;20024;-48
2021/08/01 03:00:59;;;;;;;11.20;6.50;;;;;;;20.85;51.50;99282.31;5093888;28;20085;-51
2021/08/01 03:03:26;;;;;;;9.07;6.47;;;;;;;20.94;51.46;99289.22;5093962;28;20423;-47
2021/08/01 03:05:52;;;;;;;10.18;6.90;;;;;;;20.97;50.95;99277.09;5094300;28;20102;-53
2021/08/01 03:08:18;;;;;;;12.18;6.47;;;;;;;21.07;50.89;99282.97;5093969;28;20084;-51
2021/08/01 03:10:50;;;;;;;11.57;6.55;;;;;;;21.23;50.12;99288.03;5093880;28;20093;-48
2021/08/01 03:13:16;;;;;;;15.90;6.82;;;;;;;21.34;50.07;99283.03;5094223;28;20059;-52
2021/08/01 03:15:44;;;;;;;14.18;6.65;;;;;;;21.48;49.90;99284.72;5093887;28;20039;-47
2021/08/01 03:18:10;;;;;;;14.07;6.88;;;;;;;21.62;49.66;99284.72;5093637;28;20052;-52
2021/08/01 03:20:36;;;;;;;9.85;6.03;;;;;;;21.74;49.83;99283.06;5093428;28;20044;-49
2021/08/01 03:23:01;;;;;;;8.10;6.15;;;;;;;21.88;48.52;99288.50;5093702;28;20073;-55
2021/08/01 03:25:27;;;;;;;11.23;6.25;;;;;;;22.04;48.21;99287.22;5093520;28;20537;-53
2021/08/01 03:27:52;;;;;;;9.65;6.63;;;;;;;22.22;48.62;99281.94;5093663;28;20035;-52
2021/08/01 03:30:18;;;;;;;9.32;5.93;;;;;;;22.44;46.96;99283.56;5093569;28;20448;-50
2021/08/01 03:32:43;;;;;;;11.10;5.95;;;;;;;22.69;46.31;99286.44;5093345;28;20031;-53
2021/08/01 03:35:09;;;;;;;8.38;5.75;;;;;;;22.94;45.39;99297.41;5093724;28;20028;-49
2021/08/01 03:37:35;;;;;;;11.23;6.18;;;;;;;23.20;44.94;99292.03;5093252;28;20040;-54
2021/08/01 03:40:01;;;;;;;9.80;5.75;;;;;;;23.47;44.24;99294.59;5093585;28;20062;-49
2021/08/01 03:42:26;;;;;;;10.73;6.25;;;;;;;23.78;43.21;99290.13;5075633;28;20390;-49
2021/08/01 03:44:51;;;;;;;9.63;5.65;;;;;;;24.13;42.56;99289.63;5093541;28;20127;-49
2021/08/01 03:47:17;;;;;;;11.77;5.72;;;;;;;24.52;41.92;99292.16;5093121;28;20463;-49
2021/08/01 03:49:43;;;;;;;12.55;5.90;;;;;;;24.87;41.29;99296.16;5093156;28;20029;-50
2021/08/01 03:52:10;;;;;;;16.00;5.90;;;;;;;25.16;40.56;99290.91;5093061;28;20040;-48
2021/08/01 03:54:35;;;;;;;15.60;5.97;;;;;;;25.63;39.05;99288.31;5093047;28;20360;-50
2021/08/01 03:57:01;;;;;;;11.05;5.55;;;;;;;26.39;36.78;99291.38;5092626;28;20054;-49
2021/08/01 03:59:26;;;;;;;15.20;5.80;;;;;;;27.21;35.19;99278.47;5092497;28;20036;-51
2021/08/01 04:01:52;;;;;;;12.65;5.65;;;;;;;28.04;33.59;99283.41;5092982;28;20437;-52
2021/08/01 04:04:17;;;;;;;11.52;5.90;;;;;;;28.83;32.19;99290.78;5092945;28;20577;-50
2021/08/01 04:06:43;;;;;;;17.00;5.88;;;;;;;29.55;30.38;99290.72;5092608;28;20024;-51
2021/08/01 04:09:08;;;;;;;12.43;5.50;;;;;;;30.16;29.83;99292.25;5092705;28;20115;-54
2021/08/01 04:11:34;;;;;;;8.00;5.38;;;;;;;30.58;29.28;99287.75;5092580;28;20047;-51
2021/08/01 04:14:00;;;;;;;11.07;5.30;;;;;;;30.75;28.53;99291.16;5074549;28;20494;-53
2021/08/01 04:16:25;;;;;;;14.52;5.35;;;;;;;30.79;28.43;99297.81;5092571;28;20515;-48
2021/08/01 04:18:51;;;;;;;13.40;4.80;;;;;;;30.75;28.38;99301.41;5092385;28;20044;-47
2021/08/01 04:21:16;;;;;;;9.23;4.80;;;;;;;30.76;27.90;99292.81;5092349;28;20028;-50
2021/08/01 04:23:42;;;;;;;10.43;4.55;;;;;;;30.87;27.68;99303.94;5092387;28;20035;-50
2021/08/01 04:26:09;;;;;;;8.30;5.30;;;;;;;30.94;27.84;99310.03;5092476;28;20043;-51
2021/08/01 04:28:35;;;;;;;8.65;5.00;;;;;;;31.09;27.21;99298.16;5092524;28;20032;-50
2021/08/01 04:31:01;;;;;;;9.68;5.25;;;;;;;31.54;26.35;99292.16;5092010;28;20059;-51
2021/08/01 04:33:26;;;;;;;10.18;4.50;;;;;;;31.90;25.97;99293.00;5092410;28;20112;-53
2021/08/01 04:35:52;;;;;;;10.90;4.68;;;;;;;32.44;25.20;99289.84;5092035;28;20518;-50
2021/08/01 04:38:18;;;;;;;15.75;4.80;;;;;;;32.59;25.24;99294.50;5092074;28;20090;-48
2021/08/01 04:40:45;;;;;;;12.73;4.78;;;;;;;32.57;25.43;99302.25;5092174;28;20043;-52
2021/08/01 04:43:11;;;;;;;8.80;4.70;;;;;;;32.66;25.15;99292.22;5092333;28;20028;-54
2021/08/01 04:45:36;;;;;;;6.93;4.55;;;;;;;33.49;23.59;99286.19;5091773;28;20116;-52
2021/08/01 04:48:02;;;;;;;8.63;4.82;;;;;;;34.61;22.44;99282.59;5091737;28;20020;-52
2021/08/01 04:50:27;;;;;;;8.93;4.85;;;;;;;35.55;21.14;99278.44;5092313;28;20031;-49
2021/08/01 04:52:53;;;;;;;8.93;5.13;;;;;;;35.93;20.85;99292.25;5091722;28;20032;-52
2021/08/01 04:55:19;;;;;;;8.90;4.53;;;;;;;36.20;20.46;99296.25;5091862;28;20099;-50
2021/08/01 04:57:45;;;;;;;10.40;4.68;;;;;;;36.62;19.30;99285.94;5091901;28;20043;-52
2021/08/01 05:00:11;;;;;;;9.52;4.78;;;;;;;37.61;18.51;99287.28;5091872;28;20024;-53
2021/08/01 05:02:37;;;;;;;7.57;4.20;;;;;;;38.68;17.59;99281.03;5091402;28;20035;-50
2021/08/01 05:05:04;;;;;;;8.10;4.60;;;;;;;39.55;16.63;99293.44;5091518;28;20028;-52
2021/08/01 05:07:30;;;;;;;8.85;4.70;;;;;;;40.16;15.90;99284.03;5091683;28;20399;-51
2021/08/01 05:09:55;;;;;;;11.13;4.88;;;;;;;41.10;15.00;99288.94;5092026;28;20092;-54
2021/08/01 05:12:21;;;;;;;6.38;4.20;;;;;;;42.01;14.09;99278.97;5090855;28;20154;-54
2021/08/01 05:14:46;;;;;;;7.97;4.55;;;;;;;42.27;13.97;99286.28;5091536;28;20027;-51
2021/08/01 05:17:12;;;;;;;8.80;4.47;;;;;;;41.93;14.04;99293.94;5091278;28;20040;-47
2021/08/01 05:19:42;;;;;;;8.15;4.10;;;;;;;42.08;14.36;99284.84;5090895;28;20130;-50
2021/08/01 05:22:09;;;;;;;6.43;4.32;;;;;;;42.54;14.12;99286.75;5091202;28;20392;-54
2021/08/01 05:24:39;;;;;;;7.80;4.30;;;;;;;43.58;13.02;99291.03;5091354;28;20158;-52
2021/08/01 05:27:05;;;;;;;6.63;4.00;;;;;;;43.97;12.28;99274.34;5091897;28;20044;-50
2021/08/01 05:29:31;;;;;;;8.05;4.55;;;;;;;44.47;12.00;99265.50;5091867;28;20028;-53
2021/08/01 05:31:56;;;;;;;9.93;4.30;;;;;;;45.54;10.96;99264.56;5091694;28;20082;-54
2021/08/01 05:34:23;;;;;;;6.22;3.90;;;;;;;46.15;10.26;99268.47;5090996;28;20482;-51
2021/08/01 05:36:49;;;;;;;7.43;4.13;;;;;;;46.66;10.13;99263.59;5082048;28;20122;-53
2021/08/01 05:39:14;;;;;;;4.15;3.33;;;;;;;47.29;9.39;99274.53;5088653;28;20083;-54
2021/08/01 05:41:40;;;;;;;5.90;3.60;;;;;;;47.94;9.07;99291.38;5091525;28;20126;-52
2021/08/01 05:44:05;;;;;;;6.82;3.22;;;;;;;48.09;8.53;99266.81;5091076;28;20047;-54
2021/08/01 05:46:31;;;;;;;4.25;2.95;;;;;;;48.68;8.29;99280.19;5091545;28;20032;-56
2021/08/01 05:48:56;;;;;;;4.72;3.05;;;;;;;48.75;8.15;99290.78;5091527;28;20056;-53
2021/08/01 05:51:22;;;;;;;5.78;3.10;;;;;;;49.24;7.41;99283.75;5091461;28;20448;-52
2021/08/01 05:53:47;;;;;;;7.32;2.92;;;;;;;49.33;7.28;99288.22;5091170;28;20050;-48
2021/08/01 05:56:13;;;;;;;3.58;2.85;;;;;;;49.69;7.34;99288.31;5091477;28;20079;-52
2021/08/01 05:58:40;;;;;;;5.88;3.15;;;;;;;49.89;7.07;99282.25;5090953;28;20090;-50
2021/08/01 06:01:13;;;;;;;5.55;2.78;;;;;;;50.56;7.32;99294.00;5090370;28;20040;-53
2021/08/01 06:03:40;;;;;;;5.07;3.00;;;;;;;50.43;6.92;99278.56;5072674;28;20028;-51
2021/08/01 06:06:16;;;;;;;7.30;3.30;;;;;;;51.31;7.02;99289.28;5090881;28;20122;-56
2021/08/01 06:08:46;;;;;;;4.10;2.90;;;;;;;50.88;6.13;99281.69;5091382;28;20040;-55
2021/08/01 06:11:13;;;;;;;9.40;3.30;;;;;;;49.53;6.70;99295.19;5090586;28;20051;-53
2021/08/01 06:13:39;;;;;;;7.45;2.75;;;;;;;49.31;7.25;99288.59;5091055;28;20023;-51
2021/08/01 06:16:09;;;;;;;5.57;2.60;;;;;;;49.64;7.16;99305.78;5090670;28;20032;-48
2021/08/01 06:18:38;;;;;;;6.10;3.08;;;;;;;49.04;7.21;99300.25;5086076;28;20050;-49
2021/08/01 06:21:14;;;;;;;3.92;2.95;;;;;;;48.27;7.57;99284.78;5088895;28;20518;-51
2021/08/01 06:23:42;;;;;;;8.20;2.83;;;;;;;46.57;8.55;99299.88;5089783;28;20043;-58
2021/08/01 06:26:08;;;;;;;3.65;2.70;;;;;;;44.88;9.46;99296.28;5092250;28;20388;-54
2021/08/01 06:28:34;;;;;;;7.22;3.28;;;;;;;43.85;10.27;99291.38;5092789;28;20036;-55
2021/08/01 06:31:04;;;;;;;4.95;3.00;;;;;;;43.67;10.69;99305.78;5093284;28;20058;-55
2021/08/01 06:33:31;;;;;;;8.10;3.00;;;;;;;43.36;10.98;99295.25;5092651;28;20035;-54
2021/08/01 06:35:56;;;;;;;4.63;3.00;;;;;;;43.09;11.05;99286.41;5092627;28;20028;-52
2021/08/01 06:38:22;;;;;;;7.60;2.90;;;;;;;42.51;11.72;99284.66;5093391;28;20034;-49
2021/08/01 06:40:48;;;;;;;5.35;2.90;;;;;;;41.93;11.86;99282.69;5093628;28;20051;-51
2021/08/01 06:43:13;;;;;;;5.05;2.47;;;;;;;41.38;12.20;99274.34;5093217;28;20074;-49
2021/08/01 06:45:39;;;;;;;5.63;2.90;;;;;;;41.22;12.62;99276.97;5093308;28;20099;-51
2021/08/01 06:48:06;;;;;;;7.35;2.60;;;;;;;42.02;12.24;99280.63;5093576;28;20024;-54
2021/08/01 06:50:32;;;;;;;7.07;3.05;;;;;;;44.07;10.30;99277.81;5093152;28;20024;-49
2021/08/01 06:52:57;;;;;;;6.57;3.45;;;;;;;46.71;8.33;99277.41;5092925;28;20109;-50
2021/08/01 06:55:23;;;;;;;5.72;3.20;;;;;;;49.01;6.88;99275.50;5093780;28;20028;-50
2021/08/01 06:57:48;;;;;;;7.95;2.80;;;;;;;49.93;6.65;99263.16;5092851;28;20031;-48
2021/08/01 07:00:14;;;;;;;4.28;2.53;;;;;;;51.12;5.75;99285.69;5092669;28;20039;-52
2021/08/01 07:02:40;;;;;;;6.93;2.70;;;;;;;52.43;4.88;99289.69;5093189;28;20551;-56
2021/08/01 07:05:05;;;;;;;7.00;2.90;;;;;;;53.22;4.39;99283.00;5093370;28;20133;-51
2021/08/01 07:07:31;;;;;;;5.03;3.42;;;;;;;53.95;4.01;99277.03;5092363;28;20755;-51
2021/08/01 07:09:56;;;;;;;3.90;3.20;;;;;;;54.38;4.21;99281.19;5074848;28;20024;-53
2021/08/01 07:12:22;;;;;;;8.75;3.83;;;;;;;54.26;3.95;99270.34;5092636;28;20331;-53
2021/08/01 07:14:48;;;;;;;5.57;3.17;;;;;;;53.84;3.98;99255.56;5092876;28;20057;-48
2021/08/01 07:17:13;;;;;;;5.32;3.30;;;;;;;52.51;4.74;99274.06;5092689;28;20056;-54
2021/08/01 07:19:39;;;;;;;8.48;3.80;;;;;;;51.23;5.45;99259.97;5092396;28;20501;-54
2021/08/01 07:22:04;;;;;;;5.13;3.22;;;;;;;49.10;6.54;99267.44;5092760;28;20520;-50
2021/08/01 07:24:30;;;;;;;6.70;2.78;;;;;;;46.86;7.61;99272.75;5092945;28;20028;-51
2021/08/01 07:26:56;;;;;;;4.25;3.15;;;;;;;45.45;8.92;99264.78;5092695;28;20055;-48
2021/08/01 07:29:24;;;;;;;5.40;3.00;;;;;;;44.05;9.94;99268.91;5092306;28;20545;-46
2021/08/01 07:31:50;;;;;;;9.30;3.30;;;;;;;42.75;10.97;99275.31;5092189;28;20024;-49
2021/08/01 07:34:16;;;;;;;9.63;3.28;;;;;;;41.49;11.88;99269.09;5089987;28;20075;-55
2021/08/01 07:36:47;;;;;;;6.88;3.15;;;;;;;40.69;12.48;99271.72;5090059;28;20111;-56
2021/08/01 07:39:12;;;;;;;7.38;3.10;;;;;;;39.49;13.47;99272.34;5092269;28;20430;-55
2021/08/01 07:41:37;;;;;;;8.57;3.25;;;;;;;38.71;15.03;99271.97;5092567;28;20035;-53
2021/08/01 07:44:03;;;;;;;5.88;3.50;;;;;;;37.86;15.57;99265.44;5085402;28;20032;-52
2021/08/01 07:46:29;;;;;;;5.97;3.10;;;;;;;36.99;16.27;99263.63;5092464;28;20117;-55
2021/08/01 07:48:54;;;;;;;8.15;4.00;;;;;;;36.01;17.82;99260.91;5092203;28;20028;-48
2021/08/01 07:51:19;;;;;;;6.40;3.55;;;;;;;34.99;19.07;99251.19;5092591;28;20094;-51
2021/08/01 07:53:45;;;;;;;7.90;3.47;;;;;;;34.16;20.09;99255.03;5092965;28;20028;-52
2021/08/01 07:56:10;;;;;;;5.85;3.35;;;;;;;33.49;21.05;99269.53;5092484;28;20452;-53
2021/08/01 07:58:36;;;;;;;9.73;3.55;;;;;;;32.93;21.72;99269.66;5092459;28;20463;-54
2021/08/01 08:01:01;;;;;;;7.97;3.40;;;;;;;32.45;22.16;99264.59;5092048;28;20054;-53
2021/08/01 08:03:27;;;;;;;6.40;3.55;;;;;;;32.12;22.99;99271.63;5092173;28;20103;-48
2021/08/01 08:05:52;;;;;;;9.23;3.90;;;;;;;31.88;23.26;99275.00;5088679;28;20024;-56
2021/08/01 08:08:18;;;;;;;6.07;3.50;;;;;;;31.75;23.82;99273.59;5088835;28;20039;-49
2021/08/01 08:10:43;;;;;;;8.23;4.00;;;;;;;31.66;23.41;99287.16;5091812;28;20463;-52
2021/08/01 08:13:09;;;;;;;9.43;3.50;;;;;;;31.53;24.09;99280.25;5073782;28;20104;-53
2021/08/01 08:15:34;;;;;;;6.18;2.97;;;;;;;31.43;24.45;99277.50;5088051;28;20108;-47
2021/08/01 08:18:00;;;;;;;7.25;3.53;;;;;;;31.40;24.83;99286.34;5087195;28;20142;-52
2021/08/01 08:20:26;;;;;;;11.25;3.83;;;;;;;31.31;24.70;99288.84;5091094;28;20044;-54
2021/08/01 08:22:51;;;;;;;8.50;3.55;;;;;;;31.16;25.51;99289.63;5091036;28;20119;-59
2021/08/01 08:25:17;;;;;;;7.10;3.50;;;;;;;31.01;25.33;99290.41;5090929;28;20032;-52
2021/08/01 08:27:42;;;;;;;8.77;3.88;;;;;;;30.82;25.15;99290.06;5090817;28;20050;-55
2021/08/01 08:30:09;;;;;;;5.32;3.00;;;;;;;30.68;26.00;99296.13;5089410;28;20123;-53
2021/08/01 08:32:35;;;;;;;5.57;3.50;;;;;;;30.43;26.28;99280.22;5090335;28;20070;-48
2021/08/01 08:35:01;;;;;;;4.82;3.53;;;;;;;30.34;26.64;99290.97;5091391;28;20031;-49
2021/08/01 08:37:27;;;;;;;8.48;3.33;;;;;;;30.29;26.92;99294.53;5090963;28;20051;-51
2021/08/01 08:39:52;;;;;;;6.43;3.40;;;;;;;30.27;26.64;99295.91;5091287;28;20032;-54
2021/08/01 08:42:19;;;;;;;6.38;3.72;;;;;;;30.24;26.72;99290.91;5091278;28;20040;-52
2021/08/01 08:44:45;;;;;;;10.45;3.60;;;;;;;30.21;26.90;99287.59;5091131;28;20063;-52
2021/08/01 08:47:17;;;;;;;6.28;3.50;;;;;;;30.31;26.55;99292.34;5090341;28;20482;-56
2021/08/01 08:49:46;;;;;;;5.13;3.38;;;;;;;30.13;26.83;99296.38;5091744;28;20513;-57
2021/08/01 08:52:12;;;;;;;8.45;3.60;;;;;;;29.92;27.34;99290.72;5091513;28;20024;-55
2021/08/01 08:54:45;;;;;;;8.25;3.80;;;;;;;29.81;27.63;99286.19;5091311;28;20459;-54
2021/08/01 08:57:19;;;;;;;5.95;3.17;;;;;;;29.86;27.62;99297.28;5089570;28;20032;-60
2021/08/01 08:59:44;;;;;;;8.75;3.22;;;;;;;29.84;27.43;99271.88;5091274;28;20027;-51
2021/08/01 09:02:13;;;;;;;12.15;3.55;;;;;;;29.94;27.12;99280.22;5090997;28;20047;-50
2021/08/01 09:04:41;;;;;;;8.95;3.97;;;;;;;29.99;27.34;99281.34;5090907;28;20097;-51
2021/08/01 09:07:06;;;;;;;5.05;3.42;;;;;;;30.09;27.49;99275.91;5091269;28;20035;-51
2021/08/01 09:09:32;;;;;;;7.38;3.65;;;;;;;30.20;27.73;99276.81;5087982;28;20032;-51
2021/08/01 09:11:57;;;;;;;11.95;4.13;;;;;;;30.17;29.91;99260.78;5088716;28;20490;-37
2021/08/01 09:14:23;;;;;;;6.38;3.40;;;;;;;30.25;27.47;99276.81;5089994;28;20392;-48
2021/08/01 09:16:50;;;;;;;4.88;3.30;;;;;;;30.23;26.76;99281.78;5089802;28;20032;-51
2021/08/01 09:19:26;;;;;;;8.02;3.40;;;;;;;30.24;27.11;99263.31;5090212;28;20035;-57
2021/08/01 09:21:52;;;;;;;4.78;3.45;;;;;;;30.00;27.53;99275.56;5090367;28;20027;-54
2021/08/01 09:24:18;;;;;;;4.28;3.33;;;;;;;29.87;27.16;99265.00;5089807;28;20111;-50
2021/08/01 09:26:50;;;;;;;8.65;3.22;;;;;;;29.81;27.40;99277.94;5090016;28;20119;-51
2021/08/01 09:29:16;;;;;;;10.38;3.45;;;;;;;29.50;27.96;99281.28;5090548;28;20119;-47
2021/08/01 09:31:43;;;;;;;5.70;3.47;;;;;;;29.30;28.47;99306.72;5090173;28;20487;-48
2021/08/01 09:34:26;;;;;;;5.15;3.35;;;;;;;29.13;28.48;99305.97;5090386;28;20494;-52
2021/08/01 09:37:10;;;;;;;7.82;3.50;;;;;;;28.84;28.86;99295.22;5090293;28;20503;-53
2021/08/01 09:39:42;;;;;;;10.63;3.72;;;;;;;28.60;29.27;99299.06;5082197;28;20035;-53
2021/08/01 09:42:10;;;;;;;7.47;3.53;;;;;;;28.37;29.97;99308.38;5081147;28;20040;-52
2021/08/01 09:44:40;;;;;;;6.22;3.60;;;;;;;28.30;30.09;99305.00;5080368;28;20044;-52
2021/08/01 09:47:07;;;;;;;6.45;3.80;;;;;;;28.30;30.50;99310.50;5083200;28;20027;-53
2021/08/01 09:49:32;;;;;;;7.45;4.03;;;;;;;28.29;30.44;99319.84;5073854;28;20032;-49
2021/08/01 09:52:03;;;;;;;7.10;3.88;;;;;;;28.34;30.94;99320.75;5088093;28;20028;-53
2021/08/01 09:54:45;;;;;;;7.65;3.83;;;;;;;28.54;29.80;99324.03;5089782;28;20024;-51
2021/08/01 09:57:19;;;;;;;8.52;3.72;;;;;;;28.29;30.82;99311.59;5085217;28;20024;-59
2021/08/01 09:59:47;;;;;;;7.97;4.10;;;;;;;28.14;31.25;99324.00;5095722;28;20028;-50
2021/08/01 10:02:13;;;;;;;6.93;3.65;;;;;;;28.08;32.22;99323.06;5091887;28;20028;-49
2021/08/01 10:04:42;;;;;;;5.90;3.67;;;;;;;28.08;32.61;99327.75;5073904;28;20485;-52
2021/08/01 10:07:08;;;;;;;6.18;4.28;;;;;;;27.98;33.24;99320.19;5091645;28;20034;-52
2021/08/01 10:09:36;;;;;;;9.40;4.50;;;;;;;28.02;33.50;99342.53;5094117;28;20036;-53
2021/08/01 10:12:03;;;;;;;7.43;4.72;;;;;;;27.94;34.29;99330.84;5093056;28;20135;-55
2021/08/01 10:14:29;;;;;;;9.93;4.40;;;;;;;27.82;34.75;99332.88;5085123;28;20035;-53
2021/08/01 10:16:56;;;;;;;6.88;4.57;;;;;;;27.63;35.00;99324.88;5094446;28;20044;-48
2021/08/01 10:19:22;;;;;;;8.40;4.50;;;;;;;27.68;35.61;99334.28;5091721;28;20040;-47
2021/08/01 10:21:50;;;;;;;10.32;4.90;;;;;;;27.65;35.66;99343.88;5094249;28;20032;-49
2021/08/01 10:24:22;;;;;;;7.35;4.63;;;;;;;27.58;37.00;99345.94;5094158;28;20034;-51
2021/08/01 10:26:51;;;;;;;9.27;5.00;;;;;;;27.40;37.73;99339.56;5093867;28;20028;-53
2021/08/01 10:29:55;;;;;;;11.88;5.32;;;;;;;27.40;37.14;99334.06;5094774;28;20032;-52
2021/08/01 10:32:21;;;;;;;8.63;5.05;;;;;;;27.06;39.28;99329.31;5078762;28;20044;-53
2021/08/01 10:34:56;;;;;;;9.73;4.72;;;;;;;27.00;39.46;99330.28;5094312;28;20395;-49
2021/08/01 10:37:34;;;;;;;11.90;5.40;;;;;;;26.98;40.72;99329.69;5094591;28;20067;-46
2021/08/01 10:40:06;;;;;;;8.32;5.13;;;;;;;26.96;40.72;99314.56;5090605;28;20047;-45
2021/08/01 10:42:33;;;;;;;7.88;5.10;;;;;;;26.87;41.75;99314.94;5092128;28;20036;-52
2021/08/01 10:44:59;;;;;;;9.77;5.30;;;;;;;26.83;41.83;99318.41;5093920;28;20464;-50
2021/08/01 10:47:25;;;;;;;6.80;5.28;;;;;;;26.74;41.67;99294.03;5092949;28;20077;-54
2021/08/01 10:49:51;;;;;;;15.32;5.03;;;;;;;26.69;43.28;99271.97;5093288;28;20085;-51
2021/08/01 10:52:18;;;;;;;7.15;5.53;;;;;;;26.67;44.54;99279.63;5091006;28;20413;-53
2021/08/01 10:55:00;;;;;;;6.43;5.70;;;;;;;26.74;43.10;99261.09;5093372;28;20082;-57
2021/08/01 10:57:28;;;;;;;9.93;5.63;;;;;;;26.53;45.18;99268.09;5093322;28;20032;-46
2021/08/01 10:59:53;;;;;;;7.90;5.55;;;;;;;26.47;44.37;99242.44;5093592;28;20111;-52
2021/08/01 11:02:20;;;;;;;6.70;5.47;;;;;;;26.40;43.64;99241.75;5093676;28;20122;-54
2021/08/01 11:04:47;;;;;;;8.48;5.82;;;;;;;26.34;44.55;99229.03;5093902;28;20060;-55
2021/08/01 11:07:33;;;;;;;8.15;6.35;;;;;;;26.39;43.06;99223.63;5093496;28;20070;-52
2021/08/01 11:10:07;;;;;;;7.07;6.13;;;;;;;26.21;44.46;99219.16;5091889;28;20036;-51
2021/08/01 11:12:38;;;;;;;8.18;6.05;;;;;;;26.05;45.06;99204.25;5092711;28;20040;-54
2021/08/01 11:15:06;;;;;;;9.18;6.80;;;;;;;25.78;45.55;99197.38;5084183;28;20031;-47
2021/08/01 11:17:41;;;;;;;8.40;6.45;;;;;;;25.73;45.34;99215.59;5093323;28;20078;-48
2021/08/01 11:20:15;;;;;;;8.02;6.30;;;;;;;25.53;45.32;99203.06;5093397;28;20051;-48
2021/08/01 11:22:42;;;;;;;10.50;6.67;;;;;;;25.55;46.96;99235.75;5093935;28;20467;-52
2021/08/01 11:25:24;;;;;;;7.88;6.03;;;;;;;25.62;45.55;99226.34;5093317;28;20027;-48
2021/08/01 11:28:07;;;;;;;10.25;5.85;;;;;;;25.60;45.18;99228.47;5093437;28;20133;-50
2021/08/01 11:31:01;;;;;;;9.10;6.30;;;;;;;25.59;45.38;99226.81;5093051;28;20039;-46
2021/08/01 11:33:39;;;;;;;9.35;6.65;;;;;;;25.53;45.22;99235.16;5082768;28;20044;-48
2021/08/01 11:36:17;;;;;;;10.65;7.30;;;;;;;25.46;46.13;99255.25;5093789;28;20051;-49
2021/08/01 11:38:48;;;;;;;10.85;7.35;;;;;;;25.39;46.58;99264.66;5093267;28;20543;-50